This is the latest recevied weather packets stored in our database for station/object W4SNA-2. If no packets are shown the sender has not sent any weather packets the latest 1 day(s).
| Time | Temp. | Humidity | Pressure | Rain* | Wind** | Luminosity | Snow |
|---|---|---|---|---|---|---|---|
| 1778021122 | 20.56° C | 47% | 1014.6 hPa | 0 mm | 3.13 m/s, 198° | - | - |
| 1778020820 | 20.56° C | 47% | 1014.6 hPa | 0 mm | 2.68 m/s, 191° | - | - |
| 1778020477 | 20.56° C | 47% | 1014.8 hPa | 0 mm | 2.68 m/s, 194° | - | - |
| 1778020180 | 20.56° C | 47% | 1014.9 hPa | 0 mm | 2.24 m/s, 197° | - | - |
| 1778019877 | 20.56° C | 47% | 1014.7 hPa | 0 mm | 2.68 m/s, 192° | - | - |
| 1778019579 | 21.11° C | 46% | 1014.8 hPa | 0 mm | 2.68 m/s, 197° | - | - |
| 1778019279 | 21.11° C | 46% | 1014.9 hPa | 0 mm | 3.13 m/s, 203° | - | - |
| 1778018978 | 21.11° C | 46% | 1014.9 hPa | 0 mm | 2.24 m/s, 199° | - | - |
| 1778018677 | 21.11° C | 45% | 1015 hPa | 0 mm | 3.13 m/s, 196° | - | - |
| 1778018381 | 21.11° C | 46% | 1014.9 hPa | 0 mm | 2.68 m/s, 195° | - | - |
| 1778018077 | 21.11° C | 46% | 1015 hPa | 0 mm | 2.24 m/s, 189° | - | - |
| 1778017780 | 21.11° C | 46% | 1015 hPa | 0 mm | 2.68 m/s, 200° | - | - |
| 1778017479 | 21.11° C | 45% | 1015 hPa | 0 mm | 2.68 m/s, 199° | - | - |
| 1778017178 | 21.11° C | 45% | 1015.2 hPa | 0 mm | 2.24 m/s, 192° | - | - |
| 1778016877 | 21.11° C | 45% | 1015.2 hPa | 0 mm | 1.79 m/s, 190° | - | - |
| 1778016578 | 21.11° C | 44% | 1015 hPa | 0 mm | 3.13 m/s, 196° | - | - |
| 1778016277 | 21.67° C | 44% | 1015.1 hPa | 0 mm | 2.68 m/s, 196° | - | - |
| 1778015978 | 21.67° C | 43% | 1015 hPa | 0 mm | 3.58 m/s, 197° | - | - |
| 1778015677 | 21.67° C | 44% | 1015.2 hPa | 0 mm | 2.68 m/s, 195° | - | - |
| 1778015379 | 21.67° C | 43% | 1015.2 hPa | 0 mm | 3.13 m/s, 201° | - | - |
| 1778015077 | 21.67° C | 42% | 1015.2 hPa | 0 mm | 3.58 m/s, 199° | - | - |
| 1778014777 | 21.11° C | 42% | 1015.2 hPa | 0 mm | 3.58 m/s, 193° | - | - |
| 1778014477 | 21.11° C | 42% | 1015.4 hPa | 0 mm | 3.13 m/s, 192° | - | - |
| 1778014178 | 21.67° C | 40% | 1015.4 hPa | 0 mm | 2.68 m/s, 199° | - | - |
| 1778013877 | 21.67° C | 38% | 1015.3 hPa | 0 mm | 3.58 m/s, 195° | - | - |
* Rain latest hour (hover to see other rain measurements)
** Current wind speed in m/s (hover to see current wind gust speed)